Glens Fork, Kentucky
Current Conditions -  °F | °C
As of 4:19 AM on Sunday 26 Oct 2014 (Local Time) from KEKQ Reporting Station
Moderate Fog Moderate Fog  
Wind Chill: 45°   Ceiling: 100
Heat Index: 45°   Visibility: 0mi
Dew Point: 45°   Wind: 0mph
Humidity: 100%   Direction: NA
Pressure: 30.02"   Gusts: NA
Location:  37.01°N, 85.25°W
Report Text: KEKQ 260919Z AUTO 00000KT M1/4SM FG VV001 07/07 A3002 RMK AO2
Loading
Personal Weather Stations






























Interactive Weather Map
Tropical Storm Tracking
New forecast layout! Learn more

10-Day Weather Forecast

Advertisements
Track Severe Weather on mobile